New Orleans Nas Jrb/Alvin Callender Field/ Airport
KNBG : now visible

Airfield :











YOU CAN JOIN US ON...

 
LOGIN :

Register | Disclaimer

   EN    FR    IT 

 









Legend :    VFR   Marginal VFR   IFR   Intensive IFR   Very Intensive IFR
Visi :
Ceiling :
>= 8 km
>= 3000ft
5 to 8 km
1000 to 3000 ft
1500m to 5 km
500 to 1000 ft
800 to 1500m
200 to 500 ft
< 800m
< 200 ft
Symbols :   Thunderstorms  Fog  Heavy snow  Heavy precipitations  Wind > 20 kt






- Airport Elevation : 2 ft


KNBG - New Orleans Nas Jrb/Alvin Callender Field/

CURRENT METAR :
  • 100555Z AUTO 02008KT 10SM CLR 21/20 A2987 RMK AO2 RAE23 SLP114 P0000 60016 T02060200 10278 20206 403170206 50007 $

EXPIRED METARs :
  • 100455Z AUTO 34012G20KT 3SM +RA BR SCT012 BKN017 OVC030 21/21 A2990 RMK AO2 PK WND 33030/0436 WSHFT 0432 RAB31 SLP125 P0016 T02110206 $

TAF TAF KNBG
Valid from the 10 at 07:00 until the 11 at 07:00 UTC


1007/1107 27008G18KT 2400 TSRA BR SCT005 BKN010 OVC050CB QNH2980INS
TEMPO 1008/1014 VRB20G30KT 1200 TSRA BR BKN005 OVC013CB
BECMG 1014/1016 03015G25KT 9999 VCTS BKN015CB BKN080 OVC250 QNH2990INS
BECMG 1020/1022 04012KT 9999 NSW BKN065 BKN100 OVC250 QNH2992INS
FM110600 VRB05KT 9999 SCT060 BKN100 QNH2995INS AUTOMATED SENSOR METWATCH 1007 TIL 1013 T16/1012Z T28/1021Z FN00210



MET'MAP, your aeronautical weather chart ! - Copyright ORBIFLY December 2007 - Disclaimer

ORBIFLY MET'MAP TEAM :

Programming & Development : Alexandra Zaïnal
Concept & original design : Baudouin d'Aumeries
Assistance for programming : Marc-Olivier Méhu
Technical & hardware support : Manuel Goepfert

Contact : metmap@orbifly.com




SOURCES & CREDITS :

   NOAA       Earth
Advisory